createdAt,value
2022-10-21T00:00:54.048Z,98737.78
2022-10-21T00:03:36.813Z,98749.19
2022-10-21T00:06:05.493Z,98746.19
2022-10-21T00:08:34.211Z,98750.13
2022-10-21T00:11:04.165Z,98744.75
2022-10-21T00:13:33.386Z,98748.81
2022-10-21T00:16:03.556Z,98730.25
2022-10-21T00:18:32.961Z,98724.00
2022-10-21T00:21:05.738Z,98721.41
2022-10-21T00:23:34.220Z,98733.72
2022-10-21T00:26:02.641Z,98744.56
2022-10-21T00:28:30.994Z,98746.00
2022-10-21T00:30:59.732Z,98744.50
2022-10-21T00:33:30.823Z,98741.94
2022-10-21T00:36:02.588Z,98737.81
2022-10-21T00:38:33.100Z,98736.44
2022-10-21T00:41:01.419Z,98739.03
2022-10-21T00:43:30.206Z,98742.53
2022-10-21T00:46:01.760Z,98745.00
2022-10-21T00:48:33.343Z,98732.16
2022-10-21T00:51:02.286Z,98732.81
2022-10-21T00:53:33.585Z,98729.16
2022-10-21T00:56:05.625Z,98727.50
2022-10-21T00:58:35.229Z,98731.59
2022-10-21T01:01:05.303Z,98727.75
2022-10-21T01:03:34.794Z,98718.28
2022-10-21T01:06:05.940Z,98714.56
2022-10-21T01:08:35.687Z,98710.88
2022-10-21T01:11:04.421Z,98712.00
2022-10-21T01:13:40.121Z,98715.72
2022-10-21T01:16:12.053Z,98717.59
2022-10-21T01:18:46.598Z,98704.19
2022-10-21T01:21:22.105Z,98700.06
2022-10-21T01:24:25.443Z,98702.53
2022-10-21T01:27:07.188Z,98694.78
2022-10-21T01:30:08.332Z,98693.13
2022-10-21T01:32:52.574Z,98687.13
2022-10-21T01:35:23.155Z,98687.00
2022-10-21T01:37:56.781Z,98676.69
2022-10-21T01:40:28.477Z,98674.22
2022-10-21T01:42:56.647Z,98677.97
2022-10-21T01:45:30.900Z,98681.66
2022-10-21T01:48:03.009Z,98677.19
2022-10-21T01:50:34.423Z,98673.56
2022-10-21T01:53:06.197Z,98666.47
2022-10-21T01:55:34.859Z,98667.97
2022-10-21T01:58:04.870Z,98670.03
2022-10-21T02:00:34.578Z,98670.81
2022-10-21T02:03:06.785Z,98667.91
2022-10-21T02:05:35.848Z,98671.41
2022-10-21T02:08:04.476Z,98674.88
2022-10-21T02:10:35.159Z,98661.88
2022-10-21T02:13:05.131Z,98663.47
2022-10-21T02:15:34.524Z,98663.13
2022-10-21T02:18:07.237Z,98661.56
2022-10-21T02:20:38.081Z,98653.56
2022-10-21T02:23:08.301Z,98654.44
2022-10-21T02:25:37.972Z,98656.81
2022-10-21T02:28:06.269Z,98650.66
2022-10-21T02:30:40.473Z,98653.66
2022-10-21T02:33:12.408Z,98644.91
2022-10-21T02:35:45.203Z,98665.09
2022-10-21T02:38:20.171Z,98654.22
2022-10-21T02:40:51.817Z,98648.16
2022-10-21T02:43:20.377Z,98650.78
2022-10-21T02:45:49.321Z,98641.47
2022-10-21T02:48:18.890Z,98642.16
2022-10-21T02:50:47.126Z,98638.34
2022-10-21T02:53:15.474Z,98636.53
2022-10-21T02:55:43.803Z,98634.69
2022-10-21T02:58:11.870Z,98634.00
2022-10-21T03:00:40.251Z,98631.09
2022-10-21T03:03:08.439Z,98638.94
2022-10-21T03:05:38.034Z,98623.38
2022-10-21T03:08:06.980Z,98622.13
2022-10-21T03:10:35.260Z,98620.88
2022-10-21T03:13:03.561Z,98613.22
2022-10-21T03:15:31.866Z,98607.19
2022-10-21T03:17:59.909Z,98609.94
2022-10-21T03:20:28.341Z,98604.72
2022-10-21T03:22:57.861Z,98605.50
2022-10-21T03:25:26.341Z,98612.06
2022-10-21T03:27:54.421Z,98606.31
2022-10-21T03:30:22.817Z,98613.63
2022-10-21T03:32:51.005Z,98609.22
2022-10-21T03:35:19.413Z,98594.41
2022-10-21T03:37:47.580Z,98595.47
2022-10-21T03:40:18.159Z,98597.75
2022-10-21T03:42:46.407Z,98601.59
2022-10-21T03:45:14.755Z,98593.00
2022-10-21T03:47:42.937Z,98594.28
2022-10-21T03:50:13.978Z,98587.50
2022-10-21T03:52:44.670Z,98588.50
2022-10-21T03:55:13.459Z,98586.47
2022-10-21T03:57:43.362Z,98587.97
2022-10-21T04:02:46.351Z,98589.00
2022-10-21T04:05:15.085Z,98583.19
2022-10-21T04:07:43.236Z,98588.47
2022-10-21T04:10:12.197Z,98580.88
2022-10-21T04:12:40.574Z,98581.34
2022-10-21T04:15:13.743Z,98582.31
2022-10-21T04:17:42.068Z,98582.69
2022-10-21T04:20:11.995Z,98582.31
2022-10-21T04:22:40.468Z,98587.28
2022-10-21T04:25:09.465Z,98581.94
2022-10-21T04:27:37.715Z,98584.84
2022-10-21T04:30:07.549Z,98586.59
2022-10-21T04:32:37.552Z,98577.50
2022-10-21T04:35:06.909Z,98571.84
2022-10-21T04:37:40.205Z,98566.50
2022-10-21T04:40:10.403Z,98571.66
2022-10-21T04:42:38.595Z,98563.88
2022-10-21T04:45:07.898Z,98564.22
2022-10-21T04:47:37.743Z,98570.47
2022-10-21T04:50:06.973Z,98558.31
2022-10-21T04:52:35.330Z,98563.16
2022-10-21T04:55:03.655Z,98556.78
2022-10-21T04:57:31.802Z,98559.88
2022-10-21T05:00:00.068Z,98565.06
2022-10-21T05:02:28.407Z,98560.22
2022-10-21T05:04:58.087Z,98555.75
2022-10-21T05:07:26.355Z,98564.13
2022-10-21T05:09:54.744Z,98561.97
2022-10-21T05:12:22.924Z,98557.88
2022-10-21T05:14:51.314Z,98562.13
2022-10-21T05:17:19.384Z,98563.25
2022-10-21T05:19:47.797Z,98563.88
2022-10-21T05:22:17.294Z,98557.47
2022-10-21T05:24:45.863Z,98548.31
2022-10-21T05:27:13.988Z,98564.69
2022-10-21T05:29:42.330Z,98551.38
2022-10-21T05:32:10.426Z,98545.94
2022-10-21T05:34:38.920Z,98529.56
2022-10-21T05:37:07.113Z,98545.41
2022-10-21T05:39:36.969Z,98572.28
2022-10-21T05:42:05.380Z,98575.03
2022-10-21T05:44:33.764Z,98555.16
2022-10-21T05:47:01.835Z,98555.78
2022-10-21T05:49:30.205Z,98576.25
2022-10-21T05:51:58.512Z,98570.53
2022-10-21T05:54:26.965Z,98554.06
2022-10-21T05:56:58.018Z,98561.69
2022-10-21T05:59:27.029Z,98571.16
2022-10-21T06:01:55.075Z,98565.88
2022-10-21T06:04:23.469Z,98566.84
2022-10-21T06:06:51.676Z,98570.63
2022-10-21T06:09:20.038Z,98569.13
2022-10-21T06:11:48.322Z,98574.56
2022-10-21T06:14:19.927Z,98568.34
2022-10-21T06:16:48.162Z,98575.94
2022-10-21T06:19:16.595Z,98563.13
2022-10-21T06:21:44.788Z,98569.72
2022-10-21T06:24:13.590Z,98562.44
2022-10-21T06:26:41.790Z,98576.84
2022-10-21T06:29:10.352Z,98583.16
2022-10-21T06:31:39.863Z,98577.31
2022-10-21T06:34:08.229Z,98578.81
2022-10-21T06:36:38.293Z,98576.66
2022-10-21T06:39:06.814Z,98570.59
2022-10-21T06:41:35.219Z,98582.06
2022-10-21T06:44:03.562Z,98569.88
2022-10-21T06:46:31.969Z,98568.31
2022-10-21T06:49:01.703Z,98571.34
2022-10-21T06:51:30.545Z,98577.84
2022-10-21T06:54:00.220Z,98567.00
2022-10-21T06:56:29.243Z,98560.44
2022-10-21T06:58:59.301Z,98555.84
2022-10-21T07:01:35.226Z,98548.31
2022-10-21T07:04:17.981Z,98537.09
2022-10-21T07:06:46.464Z,98545.44
2022-10-21T07:09:14.824Z,98540.38
2022-10-21T07:11:43.244Z,98539.13
2022-10-21T07:14:12.450Z,98530.44
2022-10-21T07:16:40.634Z,98528.28
2022-10-21T07:19:09.093Z,98527.41
2022-10-21T07:21:38.621Z,98523.94
2022-10-21T07:24:07.235Z,98518.25
2022-10-21T07:26:38.722Z,98508.69
2022-10-21T07:29:10.217Z,98510.09
2022-10-21T07:31:39.409Z,98509.19
2022-10-21T07:34:09.615Z,98514.63
2022-10-21T07:36:41.991Z,98504.56
2022-10-21T07:39:12.999Z,98494.97
2022-10-21T07:41:43.476Z,98498.19
2022-10-21T07:44:12.596Z,98497.25
2022-10-21T07:46:41.572Z,98501.25
2022-10-21T07:49:10.785Z,98494.66
2022-10-21T07:51:41.332Z,98486.81
2022-10-21T07:54:10.066Z,98481.25
2022-10-21T07:56:40.571Z,98482.78
2022-10-21T07:59:12.928Z,98479.88
2022-10-21T08:01:44.814Z,98471.22
2022-10-21T08:04:14.281Z,98467.84
2022-10-21T08:06:44.258Z,98460.97
2022-10-21T08:09:12.635Z,98455.13
2022-10-21T08:11:40.820Z,98459.00
2022-10-21T08:14:10.120Z,98448.59
2022-10-21T08:16:38.494Z,98456.56
2022-10-21T08:19:07.988Z,98440.47
2022-10-21T08:21:38.368Z,98438.75
2022-10-21T08:24:08.316Z,98428.47
2022-10-21T08:26:36.416Z,98435.03
2022-10-21T08:29:05.268Z,98434.03
2022-10-21T08:31:33.501Z,98427.50
2022-10-21T08:34:01.957Z,98424.28
2022-10-21T08:36:30.258Z,98419.34
2022-10-21T08:38:59.529Z,98409.03
2022-10-21T08:41:37.480Z,98408.00
2022-10-21T08:44:07.204Z,98407.41
2022-10-21T08:46:37.111Z,98398.38
2022-10-21T08:49:10.711Z,98393.22
2022-10-21T08:51:42.448Z,98386.97
2022-10-21T08:54:15.228Z,98384.81
2022-10-21T08:56:45.186Z,98375.41
2022-10-21T08:59:20.545Z,98378.59
2022-10-21T09:01:55.211Z,98379.13
2022-10-21T09:04:29.885Z,98380.47
2022-10-21T09:07:02.499Z,98384.25
2022-10-21T09:09:33.963Z,98379.28
2022-10-21T09:12:07.178Z,98379.44
2022-10-21T09:14:47.413Z,98379.47
2022-10-21T09:17:23.983Z,98375.38
2022-10-21T09:19:56.952Z,98372.41
2022-10-21T09:22:37.936Z,98374.34
2022-10-21T09:25:19.175Z,98368.50
2022-10-21T09:27:56.375Z,98361.03
2022-10-21T09:30:25.977Z,98356.63
2022-10-21T09:32:59.133Z,98359.34
2022-10-21T09:35:33.845Z,98354.47
2022-10-21T09:38:04.240Z,98347.69
2022-10-21T09:40:34.038Z,98351.16
2022-10-21T09:43:04.288Z,98355.59
2022-10-21T09:45:34.402Z,98344.44
2022-10-21T09:48:04.921Z,98338.84
2022-10-21T09:50:34.493Z,98335.72
2022-10-21T09:53:08.144Z,98342.38
2022-10-21T09:55:36.581Z,98337.38
2022-10-21T09:58:06.344Z,98337.19
2022-10-21T10:00:47.863Z,98331.56
2022-10-21T10:03:30.316Z,98331.38
2022-10-21T10:05:59.206Z,98333.59
2022-10-21T10:08:36.884Z,98325.19
2022-10-21T10:11:20.415Z,98318.78
2022-10-21T10:13:51.621Z,98325.97
2022-10-21T10:16:23.867Z,98332.28
2022-10-21T10:18:53.881Z,98342.94
2022-10-21T10:21:23.706Z,98333.91
2022-10-21T10:23:53.542Z,98334.72
2022-10-21T10:26:25.220Z,98327.50
2022-10-21T10:28:56.812Z,98318.88
2022-10-21T10:31:31.344Z,98326.59
2022-10-21T10:34:04.656Z,98318.41
2022-10-21T10:36:36.432Z,98319.28
2022-10-21T10:39:07.745Z,98319.44
2022-10-21T10:41:39.527Z,98319.03
2022-10-21T10:44:23.090Z,98320.66
2022-10-21T10:46:55.349Z,98316.13
2022-10-21T10:49:23.996Z,98313.66
2022-10-21T10:52:07.079Z,98308.66
2022-10-21T10:54:35.518Z,98307.34
2022-10-21T10:57:06.943Z,98306.88
2022-10-21T10:59:42.648Z,98294.53
2022-10-21T11:02:23.815Z,98284.28
2022-10-21T11:05:13.591Z,98290.28
2022-10-21T11:07:46.400Z,98292.94
2022-10-21T11:10:27.892Z,98283.16
2022-10-21T11:12:56.592Z,98287.13
2022-10-21T11:15:47.996Z,98279.56
2022-10-21T11:18:25.611Z,98268.63
2022-10-21T11:21:13.156Z,98271.19
2022-10-21T11:24:02.187Z,98260.25
2022-10-21T11:26:36.876Z,98252.91
2022-10-21T11:29:17.850Z,98242.50
2022-10-21T11:32:10.605Z,98245.13
2022-10-21T11:34:49.957Z,98243.59
2022-10-21T11:37:25.390Z,98229.50
2022-10-21T11:39:58.164Z,98229.56
2022-10-21T11:42:31.622Z,98227.22
2022-10-21T11:45:10.746Z,98212.16
2022-10-21T11:47:46.969Z,98213.69
2022-10-21T11:53:12.512Z,98209.22
2022-10-21T11:56:02.566Z,98207.53
2022-10-21T11:58:39.674Z,98202.09
2022-10-21T12:01:23.827Z,98190.56
2022-10-21T12:04:09.022Z,98190.81
2022-10-21T12:06:42.548Z,98181.88
2022-10-21T12:09:15.783Z,98172.00
2022-10-21T12:11:47.293Z,98184.66
2022-10-21T12:14:30.161Z,98200.13
2022-10-21T12:17:01.047Z,98189.63
2022-10-21T12:19:30.630Z,98183.53
2022-10-21T12:21:59.319Z,98174.53
2022-10-21T12:24:41.913Z,98156.84
2022-10-21T12:27:18.102Z,98143.72
2022-10-21T12:29:54.351Z,98150.72
2022-10-21T12:32:27.259Z,98149.28
2022-10-21T12:34:56.948Z,98155.03
2022-10-21T12:37:45.283Z,98152.81
2022-10-21T12:40:15.600Z,98152.34
2022-10-21T12:42:48.802Z,98155.28
2022-10-21T12:45:28.380Z,98155.03
2022-10-21T12:47:57.883Z,98152.94
2022-10-21T12:50:30.072Z,98154.22
2022-10-21T12:53:08.212Z,98150.66
2022-10-21T12:55:41.204Z,98152.53
2022-10-21T12:58:22.959Z,98158.94
2022-10-21T13:00:57.081Z,98148.75
2022-10-21T13:03:50.542Z,98135.38
2022-10-21T13:06:49.774Z,98124.03
2022-10-21T13:09:38.087Z,98124.78
2022-10-21T13:12:27.348Z,98122.00
2022-10-21T13:14:56.743Z,98124.16
2022-10-21T13:17:50.903Z,98122.06
2022-10-21T13:20:50.056Z,98131.78
2022-10-21T13:23:41.690Z,98131.59
2022-10-21T13:26:31.162Z,98136.63
2022-10-21T13:29:02.723Z,98140.03
2022-10-21T13:31:31.186Z,98144.56
2022-10-21T13:33:59.479Z,98136.19
2022-10-21T13:39:25.692Z,98140.31
2022-10-21T13:42:00.675Z,98133.75
2022-10-21T13:44:32.140Z,98126.56
2022-10-21T13:47:00.536Z,98134.47
2022-10-21T13:49:30.265Z,98136.97
2022-10-21T13:51:59.328Z,98130.78
2022-10-21T13:54:35.877Z,98123.88
2022-10-21T13:57:07.362Z,98133.66
2022-10-21T13:59:35.571Z,98134.69
2022-10-21T14:02:05.358Z,98131.78
2022-10-21T14:04:34.820Z,98135.91
2022-10-21T14:07:06.251Z,98136.44
2022-10-21T14:09:40.227Z,98141.50
2022-10-21T14:12:10.040Z,98141.91
2022-10-21T14:14:40.150Z,98147.28
2022-10-21T14:17:10.587Z,98145.59
2022-10-21T14:19:39.976Z,98145.41
2022-10-21T14:22:10.399Z,98148.41
2022-10-21T14:24:42.192Z,98149.19
2022-10-21T14:27:13.016Z,98147.56
2022-10-21T14:29:41.974Z,98152.09
2022-10-21T14:32:14.484Z,98152.88
2022-10-21T14:35:00.053Z,98144.50
2022-10-21T14:37:28.538Z,98144.81
2022-10-21T14:40:10.976Z,98141.38
2022-10-21T14:42:41.117Z,98146.25
2022-10-21T14:45:17.438Z,98149.63
2022-10-21T14:47:50.400Z,98146.78
2022-10-21T14:50:21.728Z,98144.91
2022-10-21T14:52:50.275Z,98141.63
2022-10-21T14:55:29.049Z,98148.41
2022-10-21T14:58:02.884Z,98158.25
2022-10-21T15:00:34.962Z,98158.09
2022-10-21T15:03:03.531Z,98155.66
2022-10-21T15:05:35.621Z,98156.53
2022-10-21T15:08:32.402Z,98160.13
2022-10-21T15:11:23.738Z,98157.16
2022-10-21T15:14:00.291Z,98156.88
2022-10-21T15:16:30.660Z,98153.34
2022-10-21T15:18:59.589Z,98152.97
2022-10-21T15:21:33.814Z,98150.78
2022-10-21T15:24:02.631Z,98165.34
2022-10-21T15:26:35.486Z,98174.84
2022-10-21T15:29:13.926Z,98165.00
2022-10-21T15:31:42.103Z,98165.31
2022-10-21T15:34:14.501Z,98170.78
2022-10-21T15:36:42.739Z,98174.06
2022-10-21T15:39:11.362Z,98165.50
2022-10-21T15:41:41.414Z,98172.06
2022-10-21T15:44:19.397Z,98178.56
2022-10-21T15:46:50.012Z,98176.88
2022-10-21T15:49:20.847Z,98177.00
2022-10-21T15:51:49.937Z,98177.13
2022-10-21T15:54:19.909Z,98180.25
2022-10-21T15:56:52.695Z,98184.53
2022-10-21T15:59:23.674Z,98186.13
2022-10-21T16:01:52.232Z,98185.84
2022-10-21T16:04:20.806Z,98188.13
2022-10-21T16:06:49.655Z,98176.03
2022-10-21T16:09:20.997Z,98175.84
2022-10-21T16:11:59.525Z,98178.97
2022-10-21T16:14:30.138Z,98179.75
2022-10-21T16:16:59.901Z,98179.59
2022-10-21T16:19:29.073Z,98174.19
2022-10-21T16:21:57.535Z,98176.94
2022-10-21T16:24:26.054Z,98168.78
2022-10-21T16:26:55.503Z,98180.41
2022-10-21T16:29:24.788Z,98179.81
2022-10-21T16:31:52.934Z,98182.50
2022-10-21T16:34:21.353Z,98175.00
2022-10-21T16:36:49.491Z,98180.00
2022-10-21T16:39:19.726Z,98184.22
2022-10-21T16:41:47.875Z,98192.53
2022-10-21T16:44:17.683Z,98199.84
2022-10-21T16:46:50.844Z,98199.72
2022-10-21T16:49:22.367Z,98206.41
2022-10-21T16:51:52.025Z,98205.09
2022-10-21T16:54:21.157Z,98199.69
2022-10-21T16:56:52.092Z,98199.44
2022-10-21T16:59:24.858Z,98199.09
2022-10-21T17:01:53.106Z,98206.81
2022-10-21T17:04:22.192Z,98204.09
2022-10-21T17:06:50.774Z,98206.28
2022-10-21T17:09:19.477Z,98200.59
2022-10-21T17:11:48.477Z,98199.44
2022-10-21T17:14:20.327Z,98203.59
2022-10-21T17:16:49.911Z,98204.72
2022-10-21T17:19:18.434Z,98203.38
2022-10-21T17:21:47.051Z,98206.50
2022-10-21T17:24:17.607Z,98209.66
2022-10-21T17:26:46.295Z,98207.75
2022-10-21T17:29:14.576Z,98204.59
2022-10-21T17:31:44.184Z,98208.84
2022-10-21T17:34:26.242Z,98209.41
2022-10-21T17:36:55.273Z,98205.63
2022-10-21T17:39:24.566Z,98199.53
2022-10-21T17:41:52.895Z,98195.56
2022-10-21T17:44:21.543Z,98187.25
2022-10-21T17:46:54.359Z,98191.25
2022-10-21T17:49:24.726Z,98196.41
2022-10-21T17:51:53.452Z,98188.94
2022-10-21T17:54:25.976Z,98174.28
2022-10-21T17:56:57.283Z,98171.97
2022-10-21T17:59:26.841Z,98169.81
2022-10-21T18:01:55.007Z,98162.38
2022-10-21T18:04:24.833Z,98169.97
2022-10-21T18:06:53.084Z,98149.22
2022-10-21T18:09:21.516Z,98151.03
2022-10-21T18:11:49.774Z,98150.50
2022-10-21T18:14:18.047Z,98145.63
2022-10-21T18:16:46.311Z,98144.16
2022-10-21T18:19:15.279Z,98141.41
2022-10-21T18:21:44.901Z,98136.88
2022-10-21T18:24:13.698Z,98139.16
2022-10-21T18:26:42.250Z,98134.09
2022-10-21T18:29:10.693Z,98127.00
2022-10-21T18:31:39.876Z,98125.09
2022-10-21T18:34:09.408Z,98122.84
2022-10-21T18:36:38.007Z,98117.34
2022-10-21T18:39:07.884Z,98119.13
2022-10-21T18:41:36.311Z,98118.06
2022-10-21T18:44:08.429Z,98112.88
2022-10-21T18:46:37.753Z,98117.16
2022-10-21T18:49:07.854Z,98120.25
2022-10-21T18:51:36.074Z,98114.06
2022-10-21T18:54:05.518Z,98109.13
2022-10-21T18:56:34.993Z,98108.50
2022-10-21T18:59:06.401Z,98109.78
2022-10-21T19:01:34.716Z,98106.44
2022-10-21T19:04:03.323Z,98105.91
2022-10-21T19:06:36.070Z,98107.50
2022-10-21T19:09:07.560Z,98105.91
2022-10-21T19:11:37.161Z,98111.25
2022-10-21T19:14:07.323Z,98113.72
2022-10-21T19:16:38.241Z,98117.09
2022-10-21T19:19:07.395Z,98111.81
2022-10-21T19:21:35.634Z,98116.81
2022-10-21T19:24:04.383Z,98117.22
2022-10-21T19:26:33.511Z,98107.91
2022-10-21T19:29:05.966Z,98097.59
2022-10-21T19:31:36.202Z,98099.31
2022-10-21T19:34:06.202Z,98102.09
2022-10-21T19:36:34.622Z,98103.38
2022-10-21T19:39:03.169Z,98098.03
2022-10-21T19:41:31.345Z,98098.00
2022-10-21T19:43:59.962Z,98092.94
2022-10-21T19:46:30.444Z,98093.03
2022-10-21T19:48:58.895Z,98104.00
2022-10-21T19:51:27.582Z,98107.81
2022-10-21T19:53:56.738Z,98103.41
2022-10-21T19:56:29.569Z,98113.25
2022-10-21T19:59:02.880Z,98113.91
2022-10-21T20:01:33.655Z,98119.69
2022-10-21T20:04:03.211Z,98118.31
2022-10-21T20:06:32.936Z,98125.97
2022-10-21T20:09:03.181Z,98123.38
2022-10-21T20:11:31.577Z,98126.56
2022-10-21T20:14:00.150Z,98109.19
2022-10-21T20:16:29.764Z,98108.16
2022-10-21T20:19:01.223Z,98110.38
2022-10-21T20:21:30.994Z,98108.78
2022-10-21T20:24:00.118Z,98113.09
2022-10-21T20:26:28.843Z,98116.72
2022-10-21T20:28:57.799Z,98126.28
2022-10-21T20:31:25.891Z,98129.56
2022-10-21T20:33:54.288Z,98136.38
2022-10-21T20:36:25.297Z,98133.88
2022-10-21T20:38:55.188Z,98137.03
2022-10-21T20:41:25.795Z,98133.94
2022-10-21T20:43:55.351Z,98142.72
2022-10-21T20:46:25.298Z,98142.88
2022-10-21T20:48:54.604Z,98134.13
2022-10-21T20:51:25.634Z,98132.31
2022-10-21T20:53:54.981Z,98134.94
2022-10-21T20:56:23.613Z,98124.88
2022-10-21T20:58:51.878Z,98123.72
2022-10-21T21:01:22.605Z,98106.66
2022-10-21T21:03:51.594Z,98101.97
2022-10-21T21:06:20.635Z,98112.84
2022-10-21T21:09:08.547Z,98116.53
2022-10-21T21:11:38.590Z,98116.56
2022-10-21T21:14:07.201Z,98112.38
2022-10-21T21:16:35.302Z,98101.31
2022-10-21T21:19:05.375Z,98095.91
2022-10-21T21:21:34.977Z,98087.63
2022-10-21T21:24:05.662Z,98091.19
2022-10-21T21:26:36.322Z,98082.44
2022-10-21T21:29:06.326Z,98084.13
2022-10-21T21:31:35.835Z,98085.69
2022-10-21T21:34:04.883Z,98081.78
2022-10-21T21:36:32.995Z,98086.41
2022-10-21T21:39:01.380Z,98081.47
2022-10-21T21:41:31.076Z,98082.28
2022-10-21T21:43:59.474Z,98078.06
2022-10-21T21:46:28.249Z,98088.97
2022-10-21T21:49:00.889Z,98087.94
2022-10-21T21:51:31.935Z,98093.78
2022-10-21T21:54:00.373Z,98091.91
2022-10-21T21:56:30.010Z,98096.31
2022-10-21T21:58:58.720Z,98095.66
2022-10-21T22:01:28.549Z,98098.50
2022-10-21T22:03:57.910Z,98095.91
2022-10-21T22:06:32.111Z,98096.56
2022-10-21T22:09:00.940Z,98091.88
2022-10-21T22:11:31.942Z,98088.28
2022-10-21T22:14:00.745Z,98085.25
2022-10-21T22:16:30.597Z,98083.91
2022-10-21T22:19:01.084Z,98076.25
2022-10-21T22:21:31.430Z,98087.97
2022-10-21T22:23:59.832Z,98079.72
2022-10-21T22:26:28.930Z,98084.75
2022-10-21T22:28:58.791Z,98075.66
2022-10-21T22:31:29.521Z,98080.84
2022-10-21T22:34:00.882Z,98088.44
2022-10-21T22:36:29.071Z,98081.34
2022-10-21T22:38:57.847Z,98060.41
2022-10-21T22:41:26.043Z,98062.13
2022-10-21T22:43:54.456Z,98050.47
2022-10-21T22:46:39.410Z,98044.88
2022-10-21T22:49:08.214Z,98052.53
2022-10-21T22:51:36.533Z,98059.41
2022-10-21T22:54:11.595Z,98058.72
2022-10-21T22:56:47.739Z,98054.66
2022-10-21T22:59:16.166Z,98056.94
2022-10-21T23:01:45.611Z,98044.88
2022-10-21T23:04:14.099Z,98047.56
2022-10-21T23:06:42.211Z,98059.09
2022-10-21T23:09:10.577Z,98049.81
2022-10-21T23:11:38.949Z,98046.25
2022-10-21T23:14:09.580Z,98043.31
2022-10-21T23:16:38.430Z,98048.03
2022-10-21T23:19:09.367Z,98045.50
2022-10-21T23:21:38.187Z,98058.25
2022-10-21T23:24:07.540Z,98047.97
2022-10-21T23:26:36.744Z,98054.84
2022-10-21T23:29:05.693Z,98046.06
2022-10-21T23:31:33.929Z,98042.53
2022-10-21T23:34:02.920Z,98042.69
2022-10-21T23:36:33.072Z,98037.72
2022-10-21T23:39:01.864Z,98041.06
2022-10-21T23:41:30.225Z,98054.69
2022-10-21T23:43:58.588Z,98054.03
2022-10-21T23:48:55.897Z,98053.34
2022-10-21T23:51:24.085Z,98046.06
2022-10-21T23:53:53.757Z,98043.06
2022-10-21T23:56:22.113Z,98039.09
2022-10-21T23:58:50.346Z,98050.81
